KFTK Airport Information

Runway Information
Runway 05 Length 1900 ft width 90 ft
Elevation 724 ft Threshold 0 ft Heading 46
Runway 23 Length 1900 ft Width 90 ft
Elevation 743 ft Threshold 0 ft Heading 226
Runway 09 Length 4999 ft width 150 ft
Elevation 738 ft Threshold 0 ft Heading 97
Runway 27 Length 4999 ft Width 150 ft
Elevation 728 ft Threshold 0 ft Heading 277
Runway 15 Length 5253 ft width 75 ft
Elevation 754 ft Threshold 200 ft Heading 148
Runway 33 Length 5253 ft Width 75 ft
Elevation 754 ft Threshold 200 ft Heading 328
Runway 18 Length 5185 ft width 150 ft
Elevation 754 ft Threshold 200 ft Heading 177
Runway 36 Length 5185 ft Width 150 ft
Elevation 754 ft Threshold 200 ft Heading 357
Airport Frequencies
Type A/D Name LOUISVILLE Frequency 123.675 MHZ
Type ATIS Name ATIS Frequency 109.6 MHZ
Type CTAF Name CTAF Frequency 126.8 MHZ
Type GND Name GND Frequency 121.9 MHZ
Type MISC Name AIR TO AIR Frequency 23.75 MHZ
Type OPS Name BASE OPS Frequency 126.2 MHZ
Type TWR Name TWR Frequency 126.8 MHZ
Airport Navaids
Type VOR-DME Name Fort Knox Frequency 109600 KHZ
Type NDB Name Godman Frequency 396 KHZ
Type VOR Name Mystic Frequency 108200 KHZ
Airport Weather Information & NOTAM
ADDS - METARS form results

(0530 UTC 22 October 2021)
Data provider http://aviationweather.gov/metar/data/
 
METAR text: KFTK 220527Z AUTO 00000KT 10SM -DZ OVC038 08/08 A3006 RMK AO2 RAB13E23RAB23E23DZB27 SLP180
Conditions at: KFTK (FORT KNOX/GODMAN, KY, US) observed 0527 UTC 22 October 2021
Temperature: 8.0°C (46°F)
Dewpoint: 8.0°C (46°F) [RH = 100%]
Pressure (altimeter): 30.06 inches Hg (1018.0 mb)
[Sea-level pressure: 1018.0 mb]
Winds: calm
Visibility: 10 or more miles (16+ km)
Ceiling: 3800 feet AGL
Clouds: overcast cloud deck at 3800 feet AGL
Weather: -DZ  (light drizzle)

METAR text: KFTK 220523Z AUTO 00000KT 10SM OVC038 08/07 A3006 RMK AO2 RAB13E23RAB23 SLP180
Conditions at: KFTK (FORT KNOX/GODMAN, KY, US) observed 0523 UTC 22 October 2021
Temperature: 8.0°C (46°F)
Dewpoint: 7.0°C (45°F) [RH = 93%]
Pressure (altimeter): 30.06 inches Hg (1018.0 mb)
[Sea-level pressure: 1018.0 mb]
Winds: calm
Visibility: 10 or more miles (16+ km)
Ceiling: 3800 feet AGL
Clouds: overcast cloud deck at 3800 feet AGL
Weather: automated observation with no human augmentation;
there may or may not be significant weather present at this time

METAR text: KFTK 220513Z AUTO 25003KT 10SM -RA OVC040 07/07 A3006 RMK AO2 RAB13 SLP180
Conditions at: KFTK (FORT KNOX/GODMAN, KY, US) observed 0513 UTC 22 October 2021
Temperature: 7.0°C (45°F)
Dewpoint: 7.0°C (45°F) [RH = 100%]
Pressure (altimeter): 30.06 inches Hg (1018.0 mb)
[Sea-level pressure: 1018.0 mb]
Winds: from the WSW (250 degrees) at 3 MPH (3 knots; 1.5 m/s)
Visibility: 10 or more miles (16+ km)
Ceiling: 4000 feet AGL
Clouds: overcast cloud deck at 4000 feet AGL
Weather: -RA  (light rain)

METAR text: KFTK 220456Z AUTO 27003KT 10SM SCT041 07/07 A3006 RMK AO2 SLP181 T00690068 402310069
Conditions at: KFTK (FORT KNOX/GODMAN, KY, US) observed 0456 UTC 22 October 2021
Temperature: 6.9°C (44°F)
Dewpoint: 6.8°C (44°F) [RH = 99%]
Pressure (altimeter): 30.06 inches Hg (1018.0 mb)
[Sea-level pressure: 1018.1 mb]
Winds: from the W (270 degrees) at 3 MPH (3 knots; 1.5 m/s)
Visibility: 10 or more miles (16+ km)
Ceiling: at least 12,000 feet AGL
Clouds: scattered clouds at 4100 feet AGL
Weather: automated observation with no human augmentation;
there may or may not be significant weather present at this time

Forecast for: AMD
Text: TAF AMD KFTK 212248Z 2122/2301 30009KT 9999 SCT040 SCT200 QNH2998INS
Forecast period: 2200 UTC 21 October 2021 to 0600 UTC 22 October 2021
Forecast type: FROM: standard forecast or significant change
Winds: from the WNW (300 degrees) at 10 MPH (9 knots; 4.6 m/s)
Visibility: 6 or more miles (10+ km)
Ceiling: at least 12,000 feet AGL
Clouds: scattered clouds at 4000 feet AGL
scattered clouds at 20000 feet AGL
Weather: no significant weather forecast for this period
Text: BECMG 2206/2207 25006KT 9999 SCT015 BKN020 QNH3002INS
Forecast period: 0600 UTC 22 October 2021 to 0100 UTC 23 October 2021
Forecast type: BECOMING: Conditions expected to become as follows by 0700 UTC 22 October 2021
Winds: from the WSW (250 degrees) at 7 MPH (6 knots; 3.1 m/s)
Visibility: 6 or more miles (10+ km)
Ceiling: 2000 feet AGL
Clouds: scattered clouds at 1500 feet AGL
broken clouds at 2000 feet AGL
Weather: no significant weather forecast for this period
Text: TEMPO 2216/2221 8000 -SHRA BKN012 OVC020 TX16/2122Z TN09/2211Z LAST NO AMDS AFT 2203 NEXT 2211
Forecast period: 1600 to 2100 UTC 22 October 2021
Forecast type: TEMPORARY: The following changes expected for less than half the time period
Visibility: 5 miles (8 km)
Ceiling: 1200 feet AGL
Clouds: broken clouds at 1200 feet AGL
overcast cloud deck at 2000 feet AGL
Weather: -SHRA  (light rain showers)